Time;durP1;ratioP1;P1;durP2;ratioP2;P2;SDS_P1;SDS_P2;PMS_P1;PMS_P2;Temp;Humidity;BMP_temperature;BMP_pressure;BME280_temperature;BME280_humidity;BME280_pressure;Samples;Min_cycle;Max_cycle;Signal;HPM_P1;HPM_P2
2023/03/17 00:02:52;;;;;;;3.85;1.63;;;;;;;;;;5031434;28;20040;-73
2023/03/17 00:05:58;;;;;;;6.55;1.30;;;10.00;67.40;;;;;;5031421;28;20588;-73
2023/03/17 00:09:03;;;;;;;4.18;1.20;;;10.30;67.90;;;;;;5031375;28;20044;-73
2023/03/17 00:12:11;;;;;;;7.10;1.48;;;10.20;67.50;;;;;;5031296;28;20068;-73
2023/03/17 00:15:16;;;;;;;5.10;1.00;;;9.90;67.60;;;;;;5031443;28;20040;-73
2023/03/17 00:18:21;;;;;;;6.13;1.15;;;;;;;;;;5031462;28;20050;-74
2023/03/17 00:21:29;;;;;;;3.58;1.33;;;9.60;67.20;;;;;;5031473;28;20037;-74
2023/03/17 00:24:33;;;;;;;2.13;1.10;;;;;;;;;;5031319;28;20377;-74
2023/03/17 00:27:37;;;;;;;4.30;1.15;;;10.00;67.40;;;;;;5031424;28;20045;-74
2023/03/17 00:30:42;;;;;;;4.60;1.25;;;10.70;67.50;;;;;;5031123;28;20049;-74
2023/03/17 00:33:48;;;;;;;4.13;1.23;;;9.40;66.60;;;;;;5031269;28;20056;-74
2023/03/17 00:36:52;;;;;;;4.45;0.90;;;10.70;67.50;;;;;;5031217;28;20389;-74
2023/03/17 00:39:56;;;;;;;1.85;0.90;;;10.10;67.40;;;;;;5031043;28;20048;-73
2023/03/17 00:43:03;;;;;;;5.63;1.35;;;10.80;67.50;;;;;;5030912;28;20407;-73
2023/03/17 00:46:27;;;;;;;2.15;1.08;;;9.80;67.30;;;;;;5030899;28;20048;-74
2023/03/17 00:49:31;;;;;;;4.22;1.00;;;10.30;67.60;;;;;;5029989;28;20030;-74
2023/03/17 00:52:35;;;;;;;5.43;1.10;;;11.70;68.40;;;;;;5031169;28;20041;-73
2023/03/17 00:55:42;;;;;;;1.90;1.10;;;10.40;67.90;;;;;;5029897;28;20048;-74
2023/03/17 00:58:47;;;;;;;2.75;1.70;;;10.30;67.50;;;;;;5030179;28;20060;-74
2023/03/17 01:01:54;;;;;;;4.95;1.00;;;9.10;66.90;;;;;;5030245;28;20044;-74
2023/03/17 01:04:59;;;;;;;2.42;1.10;;;10.40;67.60;;;;;;5029986;28;20049;-74
2023/03/17 01:08:03;;;;;;;1.95;1.00;;;9.70;67.20;;;;;;5031527;28;20048;-74
2023/03/17 01:11:21;;;;;;;2.97;1.00;;;10.90;67.80;;;;;;5028925;28;20033;-73
2023/03/17 01:14:25;;;;;;;3.85;0.80;;;10.30;67.60;;;;;;5041640;28;20048;-74
2023/03/17 01:17:29;;;;;;;6.20;1.17;;;10.20;67.90;;;;;;5031432;28;20041;-73
2023/03/17 01:20:33;;;;;;;2.65;1.20;;;10.70;68.30;;;;;;5030977;28;20048;-74
2023/03/17 01:23:37;;;;;;;1.80;1.05;;;10.80;68.30;;;;;;5030250;28;20431;-74
2023/03/17 01:26:41;;;;;;;2.60;1.00;;;11.30;68.40;;;;;;5030832;28;20052;-74
2023/03/17 01:29:45;;;;;;;5.50;1.33;;;10.20;67.80;;;;;;5030691;28;20040;-74
2023/03/17 01:32:49;;;;;;;6.00;1.25;;;10.20;67.90;;;;;;5030657;28;20421;-72
2023/03/17 01:35:53;;;;;;;3.75;1.00;;;10.40;68.00;;;;;;5030458;28;20037;-72
2023/03/17 01:38:58;;;;;;;1.33;1.00;;;10.30;68.00;;;;;;5030300;28;20041;-72
2023/03/17 01:42:04;;;;;;;3.08;0.98;;;10.50;68.10;;;;;;5029627;28;20044;-73
2023/03/17 01:45:47;;;;;;;2.63;1.10;;;9.50;68.00;;;;;;5030141;28;20056;-73
2023/03/17 01:49:11;;;;;;;4.30;1.55;;;10.30;68.40;;;;;;5030210;28;20038;-73
2023/03/17 01:52:18;;;;;;;3.70;1.90;;;10.30;68.80;;;;;;5029760;28;20052;-73
2023/03/17 01:55:22;;;;;;;3.33;1.13;;;10.30;68.60;;;;;;5029268;28;20389;-73
2023/03/17 01:58:26;;;;;;;3.63;1.45;;;10.50;68.80;;;;;;5029337;28;20044;-73
2023/03/17 02:01:37;;;;;;;2.35;1.05;;;10.60;68.80;;;;;;5029667;28;20520;-73
2023/03/17 02:04:41;;;;;;;2.15;1.00;;;10.00;69.10;;;;;;5030348;28;20389;-73
2023/03/17 02:07:45;;;;;;;2.63;1.00;;;10.70;68.50;;;;;;5029518;28;20500;-73
2023/03/17 02:10:51;;;;;;;3.90;1.20;;;13.00;70.00;;;;;;5029136;28;20397;-73
2023/03/17 02:13:55;;;;;;;5.60;1.30;;;10.30;68.60;;;;;;5030411;28;20052;-73
2023/03/17 02:16:59;;;;;;;3.67;1.30;;;11.10;69.10;;;;;;5029521;28;20052;-73
2023/03/17 02:20:18;;;;;;;1.58;0.90;;;11.60;69.50;;;;;;5029733;28;20049;-73
2023/03/17 02:23:25;;;;;;;1.67;0.95;;;11.20;69.70;;;;;;5033649;28;20504;-73
2023/03/17 02:26:31;;;;;;;5.88;1.10;;;11.20;69.50;;;;;;5033360;28;20064;-73
2023/03/17 02:29:36;;;;;;;2.53;1.13;;;;;;;;;;5033650;28;20061;-73
2023/03/17 02:32:40;;;;;;;2.90;0.90;;;10.30;69.30;;;;;;5033362;28;20045;-73
2023/03/17 02:35:45;;;;;;;4.15;1.13;;;10.10;69.30;;;;;;5032632;28;20049;-73
2023/03/17 02:38:51;;;;;;;2.55;0.90;;;10.10;69.30;;;;;;5033211;28;20513;-72
2023/03/17 02:41:55;;;;;;;2.55;0.85;;;12.00;70.20;;;;;;5032526;28;20049;-73
2023/03/17 02:44:59;;;;;;;5.18;1.33;;;11.00;69.40;;;;;;5032930;28;20061;-72
2023/03/17 02:48:04;;;;;;;6.57;1.30;;;10.20;69.00;;;;;;5020966;28;20044;-73
2023/03/17 02:51:07;;;;;;;7.00;1.00;;;10.20;69.10;;;;;;5033019;28;20045;-72
2023/03/17 02:54:11;;;;;;;2.00;1.42;;;10.20;69.20;;;;;;5032776;28;20120;-73
2023/03/17 02:57:15;;;;;;;4.45;1.17;;;10.20;69.20;;;;;;5033266;28;20060;-73
2023/03/17 03:00:20;;;;;;;5.40;1.17;;;10.20;69.80;;;;;;5032875;28;20049;-73
2023/03/17 03:03:24;;;;;;;9.05;1.50;;;10.10;69.70;;;;;;5032932;28;20045;-73
2023/03/17 03:06:28;;;;;;;3.17;0.98;;;10.10;70.10;;;;;;5032751;28;20061;-73
2023/03/17 03:09:33;;;;;;;5.47;1.77;;;9.00;69.40;;;;;;5032911;28;20385;-74
2023/03/17 03:12:36;;;;;;;3.80;1.17;;;10.10;70.10;;;;;;5032815;28;20049;-74
2023/03/17 03:15:41;;;;;;;8.00;1.15;;;10.50;70.40;;;;;;5032429;28;20623;-73
2023/03/17 03:18:46;;;;;;;2.17;1.25;;;9.80;69.60;;;;;;5032445;28;20048;-74
2023/03/17 03:21:49;;;;;;;2.53;0.82;;;9.20;69.40;;;;;;5032331;28;20033;-72
2023/03/17 03:24:53;;;;;;;3.70;1.10;;;10.20;69.80;;;;;;5032303;28;20042;-73
2023/03/17 03:27:57;;;;;;;2.97;1.23;;;11.10;70.40;;;;;;5032584;28;20064;-74
2023/03/17 03:31:01;;;;;;;5.22;1.88;;;10.40;70.20;;;;;;5032389;28;20385;-73
2023/03/17 03:34:06;;;;;;;3.70;1.65;;;10.30;69.60;;;;;;5031401;28;20057;-73
2023/03/17 03:37:10;;;;;;;8.60;1.40;;;10.00;69.40;;;;;;5032264;28;20048;-73
2023/03/17 03:40:14;;;;;;;5.88;1.35;;;10.20;69.70;;;;;;5031883;28;20048;-73
2023/03/17 03:43:18;;;;;;;2.35;1.00;;;;;;;;;;5032203;28;20060;-73
2023/03/17 03:46:22;;;;;;;5.75;1.30;;;10.70;69.40;;;;;;5031898;28;20045;-73
2023/03/17 03:49:26;;;;;;;2.08;1.15;;;10.30;69.10;;;;;;5031911;28;20508;-73
2023/03/17 03:52:30;;;;;;;2.58;1.27;;;10.40;68.70;;;;;;5031922;28;20500;-73
2023/03/17 03:55:34;;;;;;;4.57;1.10;;;10.30;68.90;;;;;;5031895;28;20045;-73
2023/03/17 03:58:38;;;;;;;2.58;1.05;;;10.30;68.80;;;;;;5031577;28;20044;-73
2023/03/17 04:01:42;;;;;;;2.53;0.95;;;10.20;68.70;;;;;;5031775;28;20037;-73
2023/03/17 04:04:46;;;;;;;2.78;1.13;;;10.20;68.70;;;;;;5031472;28;20036;-73
2023/03/17 04:07:50;;;;;;;1.38;1.08;;;10.20;69.00;;;;;;5031037;28;20049;-73
2023/03/17 04:10:54;;;;;;;1.77;1.00;;;;;;;;;;5031710;28;20040;-73
2023/03/17 04:13:58;;;;;;;2.35;1.15;;;10.20;69.50;;;;;;5031359;28;20041;-73
2023/03/17 04:17:03;;;;;;;3.05;1.40;;;8.90;69.10;;;;;;5031462;28;20532;-73
2023/03/17 04:20:08;;;;;;;2.92;1.40;;;10.20;69.80;;;;;;5031515;28;20048;-73
2023/03/17 04:23:13;;;;;;;8.32;1.55;;;10.20;70.10;;;;;;5030728;28;20045;-73
2023/03/17 04:26:17;;;;;;;3.00;1.10;;;10.20;70.30;;;;;;5031241;28;20052;-73
2023/03/17 04:29:21;;;;;;;2.35;1.05;;;10.20;70.10;;;;;;5030996;28;20485;-73
2023/03/17 04:32:26;;;;;;;8.68;1.42;;;10.10;69.50;;;;;;5032038;28;20040;-73
2023/03/17 04:35:30;;;;;;;3.33;1.20;;;10.20;68.90;;;;;;5031310;28;20056;-73
2023/03/17 04:38:34;;;;;;;4.22;1.40;;;10.70;69.10;;;;;;5030043;28;20036;-73
2023/03/17 04:41:38;;;;;;;2.60;1.15;;;10.20;69.10;;;;;;5031133;28;20044;-73
2023/03/17 04:44:42;;;;;;;4.93;1.20;;;10.10;68.90;;;;;;5030700;28;20401;-73
2023/03/17 04:47:46;;;;;;;6.15;1.30;;;10.20;68.90;;;;;;5031291;28;20052;-73
2023/03/17 04:50:50;;;;;;;4.53;1.27;;;11.50;69.90;;;;;;5030954;28;20049;-72
2023/03/17 04:53:54;;;;;;;4.28;1.48;;;10.20;69.00;;;;;;5030937;28;20614;-72
2023/03/17 04:56:58;;;;;;;3.30;1.27;;;11.00;69.20;;;;;;5030728;28;20040;-72
2023/03/17 05:00:04;;;;;;;3.13;1.40;;;10.20;68.90;;;;;;5030500;28;20048;-73
2023/03/17 05:03:07;;;;;;;6.13;1.80;;;10.20;69.20;;;;;;5030853;28;20512;-73
2023/03/17 05:06:12;;;;;;;2.25;1.20;;;;;;;;;;5030707;28;20053;-74
2023/03/17 05:09:16;;;;;;;4.00;1.40;;;10.10;68.70;;;;;;5030454;28;20034;-73
2023/03/17 05:12:19;;;;;;;6.20;2.08;;;9.70;68.40;;;;;;5030725;28;20512;-73
2023/03/17 05:15:23;;;;;;;2.22;1.30;;;10.10;67.50;;;;;;5030570;28;20044;-72
2023/03/17 05:18:28;;;;;;;14.80;1.88;;;10.40;67.70;;;;;;5030663;28;20048;-73
2023/03/17 05:21:32;;;;;;;3.92;1.10;;;10.20;67.40;;;;;;5030715;28;20500;-72
2023/03/17 05:24:36;;;;;;;4.68;1.70;;;9.60;67.30;;;;;;5030752;28;20044;-73
2023/03/17 05:27:40;;;;;;;3.10;1.15;;;9.10;67.40;;;;;;5030844;28;20061;-73
2023/03/17 05:30:44;;;;;;;3.10;1.23;;;10.30;66.50;;;;;;5030632;28;20042;-73
2023/03/17 05:33:49;;;;;;;4.90;2.17;;;10.30;67.20;;;;;;5030351;28;20049;-73
2023/03/17 05:36:54;;;;;;;4.78;1.23;;;10.40;66.80;;;;;;5030543;28;20057;-73
2023/03/17 05:39:58;;;;;;;3.08;1.30;;;10.30;66.50;;;;;;5030444;28;20386;-73
2023/03/17 05:43:04;;;;;;;5.60;1.50;;;10.80;66.90;;;;;;5030385;28;20048;-73
2023/03/17 05:46:09;;;;;;;4.05;1.45;;;10.70;65.80;;;;;;5030315;28;20056;-72
2023/03/17 05:49:13;;;;;;;7.05;1.20;;;12.10;64.20;;;;;;5030131;28;20060;-73
2023/03/17 05:52:17;;;;;;;4.85;1.15;;;13.40;61.20;;;;;;5030337;28;20052;-73
2023/03/17 05:55:21;;;;;;;6.50;1.50;;;14.50;59.10;;;;;;5030475;28;20044;-73
2023/03/17 05:58:25;;;;;;;9.20;1.50;;;15.40;57.30;;;;;;5033715;28;20053;-73
2023/03/17 06:01:30;;;;;;;8.50;2.28;;;16.40;57.10;;;;;;5034568;28;20048;-73
2023/03/17 06:04:34;;;;;;;9.98;1.63;;;16.90;55.50;;;;;;5033864;28;20040;-73
2023/03/17 06:07:38;;;;;;;4.03;1.48;;;;;;;;;;5033932;28;20512;-72
2023/03/17 06:10:42;;;;;;;3.53;1.20;;;18.00;52.40;;;;;;5033715;28;20383;-74
2023/03/17 06:13:47;;;;;;;5.57;1.48;;;17.90;51.60;;;;;;5033650;28;20036;-73
2023/03/17 06:16:51;;;;;;;4.57;1.38;;;16.80;50.90;;;;;;5033841;28;20052;-73
2023/03/17 06:19:55;;;;;;;6.43;1.42;;;18.00;52.00;;;;;;5033830;28;20048;-72
2023/03/17 06:23:00;;;;;;;4.68;1.48;;;18.50;52.20;;;;;;5034113;28;20049;-67
2023/03/17 06:26:04;;;;;;;5.63;1.25;;;19.00;51.70;;;;;;5033373;28;20227;-68
2023/03/17 06:29:09;;;;;;;3.35;1.30;;;19.10;51.50;;;;;;5033682;28;20064;-67
2023/03/17 06:32:13;;;;;;;5.40;1.45;;;19.20;51.10;;;;;;5033859;28;20044;-67
2023/03/17 06:35:17;;;;;;;3.47;1.20;;;19.10;50.90;;;;;;5034385;28;20044;-67
2023/03/17 06:38:21;;;;;;;4.22;1.20;;;18.90;51.30;;;;;;5033652;28;20052;-66
2023/03/17 06:41:26;;;;;;;2.90;1.35;;;18.20;51.60;;;;;;5033223;28;20052;-66
2023/03/17 06:44:30;;;;;;;6.68;1.30;;;17.40;52.40;;;;;;5033613;28;20369;-66
2023/03/17 06:47:36;;;;;;;3.35;1.90;;;16.80;53.80;;;;;;5033179;28;20056;-67
2023/03/17 06:50:39;;;;;;;4.47;1.50;;;16.60;54.80;;;;;;5032503;28;20032;-67
2023/03/17 06:53:43;;;;;;;4.65;1.55;;;16.30;55.40;;;;;;5032816;28;20052;-66
2023/03/17 06:56:47;;;;;;;8.70;1.70;;;15.80;56.60;;;;;;5032006;28;20109;-67
2023/03/17 06:59:51;;;;;;;8.77;1.63;;;15.70;57.10;;;;;;5033260;28;20049;-68
2023/03/17 07:02:55;;;;;;;3.72;1.45;;;15.40;58.20;;;;;;5033168;28;20044;-67
2023/03/17 07:05:59;;;;;;;3.92;1.80;;;15.30;57.80;;;;;;5032863;28;20052;-66
2023/03/17 07:09:04;;;;;;;4.85;1.70;;;14.90;57.60;;;;;;5032657;28;20056;-67
2023/03/17 07:12:09;;;;;;;5.72;1.70;;;15.00;57.80;;;;;;5032469;28;20044;-66
2023/03/17 07:15:12;;;;;;;6.57;2.33;;;15.00;58.10;;;;;;5032278;28;20061;-67
2023/03/17 07:18:17;;;;;;;4.13;1.85;;;15.20;57.70;;;;;;5032425;28;20041;-67
2023/03/17 07:21:22;;;;;;;7.18;3.38;;;15.50;56.70;;;;;;5032422;28;20048;-66
2023/03/17 07:24:26;;;;;;;8.52;2.20;;;15.80;57.30;;;;;;5032398;28;20040;-67
2023/03/17 07:27:30;;;;;;;6.47;2.05;;;15.80;56.20;;;;;;5032199;28;20061;-66
2023/03/17 07:30:35;;;;;;;11.15;1.27;;;15.10;57.90;;;;;;5032518;28;20040;-65
2023/03/17 07:33:39;;;;;;;10.45;1.75;;;15.00;58.60;;;;;;5031969;28;20044;-66
2023/03/17 07:36:44;;;;;;;5.55;1.33;;;14.60;58.40;;;;;;5032372;28;20385;-67
2023/03/17 07:39:48;;;;;;;2.60;1.42;;;14.80;57.90;;;;;;5032027;28;20508;-66
2023/03/17 07:42:52;;;;;;;4.20;1.30;;;15.00;58.00;;;;;;5032054;28;20527;-68
2023/03/17 07:45:56;;;;;;;6.97;1.70;;;16.70;57.40;;;;;;5031843;28;20056;-68
2023/03/17 07:49:01;;;;;;;6.82;1.50;;;15.10;57.00;;;;;;5031357;28;20045;-68
2023/03/17 07:52:07;;;;;;;4.47;1.27;;;;;;;;;;5031888;28;20389;-68
2023/03/17 07:55:11;;;;;;;12.55;2.00;;;14.80;59.00;;;;;;5031437;28;20034;-68
2023/03/17 07:58:15;;;;;;;6.57;1.52;;;14.80;57.90;;;;;;5030231;28;20048;-67
2023/03/17 08:01:19;;;;;;;6.65;2.20;;;;;;;;;;5030653;28;20612;-66
2023/03/17 08:04:23;;;;;;;6.57;2.00;;;14.70;55.70;;;;;;5031150;28;20042;-66
2023/03/17 08:07:27;;;;;;;4.28;1.60;;;14.90;56.20;;;;;;5031314;28;20051;-66
2023/03/17 08:10:32;;;;;;;9.45;1.80;;;;;;;;;;5031674;28;20382;-67
2023/03/17 08:13:36;;;;;;;6.45;1.35;;;14.80;58.00;;;;;;5031364;28;20057;-66
2023/03/17 08:16:41;;;;;;;2.80;1.48;;;;;;;;;;5031745;28;20040;-66
2023/03/17 08:19:45;;;;;;;3.20;1.40;;;;;;;;;;5030773;28;20045;-67
2023/03/17 08:22:49;;;;;;;3.38;1.50;;;14.00;57.10;;;;;;5031395;28;20033;-67
2023/03/17 08:25:58;;;;;;;9.18;1.70;;;15.10;55.90;;;;;;5030475;28;20040;-67
2023/03/17 08:29:03;;;;;;;6.30;1.73;;;15.30;53.90;;;;;;5031019;28;20056;-67
2023/03/17 08:32:08;;;;;;;4.25;1.33;;;;;;;;;;5031382;28;20049;-67
2023/03/17 08:35:14;;;;;;;5.53;1.85;;;;;;;;;;5031389;28;20037;-67
2023/03/17 08:38:19;;;;;;;2.88;1.70;;;;;;;;;;5030926;28;20516;-67
2023/03/17 08:41:25;;;;;;;6.20;1.77;;;15.10;56.20;;;;;;5030711;28;20037;-67
2023/03/17 08:44:29;;;;;;;6.65;1.70;;;15.40;56.60;;;;;;5030609;28;20053;-68
2023/03/17 08:47:34;;;;;;;7.65;1.98;;;;;;;;;;5030623;28;20519;-67
2023/03/17 08:50:38;;;;;;;6.97;1.85;;;;;;;;;;5030727;28;20477;-67
2023/03/17 08:53:43;;;;;;;4.95;1.60;;;15.50;55.20;;;;;;5030749;28;20037;-66
2023/03/17 08:56:47;;;;;;;6.40;2.15;;;15.90;53.80;;;;;;5030486;28;20037;-68
2023/03/17 08:59:51;;;;;;;3.60;1.90;;;16.10;54.20;;;;;;5030589;28;20072;-68
2023/03/17 09:02:57;;;;;;;3.63;2.13;;;16.20;54.40;;;;;;5030787;28;20395;-68
2023/03/17 09:06:04;;;;;;;7.38;2.17;;;16.10;52.30;;;;;;5030484;28;20373;-68
2023/03/17 09:09:09;;;;;;;6.70;1.90;;;16.20;53.50;;;;;;5030885;28;20040;-67
2023/03/17 09:12:14;;;;;;;5.35;1.50;;;16.10;51.90;;;;;;5030857;28;20049;-67
2023/03/17 09:15:18;;;;;;;9.20;2.00;;;16.00;52.60;;;;;;5031087;28;20116;-67
2023/03/17 09:18:22;;;;;;;8.70;1.98;;;15.70;52.30;;;;;;5030242;28;20040;-67
2023/03/17 09:21:27;;;;;;;3.22;1.90;;;15.30;53.40;;;;;;5030421;28;20040;-68
2023/03/17 09:24:31;;;;;;;5.35;1.88;;;;;;;;;;5030359;28;20056;-67
2023/03/17 09:27:36;;;;;;;4.07;1.90;;;15.20;52.60;;;;;;5030365;28;20386;-67
2023/03/17 09:30:43;;;;;;;6.50;2.20;;;15.20;53.50;;;;;;5030250;28;20634;-68
2023/03/17 09:33:51;;;;;;;4.95;1.70;;;;;;;;;;5034481;28;20155;-67
2023/03/17 09:36:55;;;;;;;4.55;1.55;;;16.30;53.80;;;;;;5034432;28;20041;-68
2023/03/17 09:39:59;;;;;;;4.05;1.90;;;15.60;52.00;;;;;;5034597;28;20048;-69
2023/03/17 09:43:17;;;;;;;2.47;1.50;;;15.80;50.80;;;;;;5034394;28;20044;-68
2023/03/17 09:46:47;;;;;;;3.35;1.90;;;16.50;51.00;;;;;;5033992;28;20076;-67
2023/03/17 09:49:57;;;;;;;4.15;1.73;;;16.80;49.80;;;;;;5034238;28;20045;-68
2023/03/17 09:53:03;;;;;;;5.67;2.17;;;16.30;48.40;;;;;;5034498;28;20048;-68
2023/03/17 09:56:12;;;;;;;2.88;1.85;;;16.30;50.00;;;;;;5033945;28;20041;-66
2023/03/17 09:59:39;;;;;;;5.43;2.17;;;16.50;50.90;;;;;;5033711;28;20048;-66
2023/03/17 10:02:44;;;;;;;4.03;2.05;;;16.90;50.20;;;;;;5033884;28;20531;-67
2023/03/17 10:05:48;;;;;;;2.90;2.20;;;17.10;49.20;;;;;;5034066;28;20484;-67
2023/03/17 10:09:21;;;;;;;5.45;2.45;;;17.20;50.20;;;;;;5033984;28;20069;-68
2023/03/17 10:13:04;;;;;;;4.68;1.80;;;17.40;50.20;;;;;;5033669;28;20496;-67
2023/03/17 10:16:13;;;;;;;12.07;2.78;;;17.60;49.40;;;;;;5031076;28;20181;-71
2023/03/17 10:19:28;;;;;;;4.45;2.08;;;17.70;49.00;;;;;;5030938;28;20048;-66
2023/03/17 10:22:40;;;;;;;6.72;2.30;;;17.50;49.70;;;;;;5033609;28;20056;-67
2023/03/17 10:25:45;;;;;;;12.07;3.00;;;17.50;49.60;;;;;;5033319;28;20044;-68
2023/03/17 10:28:49;;;;;;;4.55;2.53;;;17.50;50.60;;;;;;5033466;28;20049;-68
2023/03/17 10:31:55;;;;;;;5.70;2.47;;;17.80;50.20;;;;;;5033562;28;20048;-68
2023/03/17 10:35:00;;;;;;;5.22;1.83;;;17.80;49.20;;;;;;5032730;28;20048;-67
2023/03/17 10:38:19;;;;;;;6.68;1.85;;;17.60;48.20;;;;;;5032424;28;20045;-67
2023/03/17 10:41:24;;;;;;;7.18;2.83;;;17.80;49.40;;;;;;5033840;28;20361;-67
2023/03/17 10:44:51;;;;;;;4.22;1.85;;;18.00;48.90;;;;;;5032875;28;20065;-68
2023/03/17 10:47:57;;;;;;;7.15;2.60;;;18.20;48.90;;;;;;5032996;28;20060;-69
2023/03/17 10:51:07;;;;;;;4.95;2.08;;;17.80;48.40;;;;;;5033353;28;20048;-68
2023/03/17 10:54:20;;;;;;;8.60;1.90;;;17.60;48.60;;;;;;5032963;28;20052;-69
2023/03/17 10:57:23;;;;;;;8.25;2.45;;;17.70;49.20;;;;;;5031912;28;20048;-68
2023/03/17 11:00:32;;;;;;;4.88;2.00;;;17.70;49.30;;;;;;5032924;28;20048;-70
2023/03/17 11:03:38;;;;;;;8.80;2.15;;;17.90;49.80;;;;;;5032142;28;20048;-71
2023/03/17 11:06:51;;;;;;;4.10;2.20;;;17.80;49.20;;;;;;5032646;28;20044;-68
2023/03/17 11:09:59;;;;;;;3.03;1.85;;;17.90;49.20;;;;;;5032748;28;20040;-69
2023/03/17 11:13:03;;;;;;;6.93;2.10;;;17.70;48.90;;;;;;5032407;28;20048;-70
2023/03/17 11:16:17;;;;;;;7.20;2.35;;;17.60;49.70;;;;;;5032854;28;20048;-68
2023/03/17 11:19:45;;;;;;;10.23;2.60;;;17.70;50.30;;;;;;5032517;28;20048;-68
2023/03/17 11:23:16;;;;;;;3.90;1.70;;;17.70;49.10;;;;;;5032374;28;20044;-69
2023/03/17 11:26:46;;;;;;;5.10;2.25;;;17.80;49.70;;;;;;5032625;28;20532;-67
2023/03/17 11:30:02;;;;;;;5.03;2.40;;;18.00;50.00;;;;;;5031001;28;20049;-66
2023/03/17 11:33:12;;;;;;;3.72;2.30;;;18.10;49.60;;;;;;5032379;28;20048;-68
2023/03/17 11:36:19;;;;;;;4.15;2.50;;;18.10;49.80;;;;;;5031901;28;20374;-68
2023/03/17 11:39:34;;;;;;;9.52;2.33;;;18.10;49.20;;;;;;5031878;28;20044;-68
2023/03/17 11:43:09;;;;;;;7.65;2.88;;;18.10;49.80;;;;;;5032171;28;20088;-65
2023/03/17 11:46:26;;;;;;;3.83;2.50;;;18.10;49.80;;;;;;5032346;28;20052;-68
2023/03/17 11:49:38;;;;;;;9.07;3.25;;;18.10;48.80;;;;;;5032228;28;20053;-69
2023/03/17 11:52:52;;;;;;;4.65;2.63;;;18.10;49.30;;;;;;5031805;28;20045;-68
2023/03/17 11:56:01;;;;;;;5.13;2.55;;;18.20;49.60;;;;;;5031019;28;20053;-68
2023/03/17 11:59:22;;;;;;;8.35;2.97;;;18.20;50.00;;;;;;5031521;28;20057;-67
2023/03/17 12:02:39;;;;;;;5.22;2.95;;;18.20;50.00;;;;;;5030606;28;20048;-67
2023/03/17 12:05:50;;;;;;;10.40;3.03;;;18.30;49.60;;;;;;5031587;28;20044;-67
2023/03/17 12:09:06;;;;;;;9.20;3.33;;;18.30;49.20;;;;;;5031614;28;20048;-68
2023/03/17 12:12:16;;;;;;;8.20;2.75;;;18.20;50.00;;;;;;5031879;28;20045;-67
2023/03/17 12:15:35;;;;;;;9.45;3.10;;;18.20;49.70;;;;;;5031386;28;20041;-67
2023/03/17 12:18:45;;;;;;;8.73;2.78;;;18.10;49.00;;;;;;5031111;28;20032;-68
2023/03/17 12:22:18;;;;;;;8.32;2.72;;;18.10;49.70;;;;;;5031458;28;20048;-66
2023/03/17 12:25:26;;;;;;;3.80;2.55;;;18.00;49.40;;;;;;5031174;28;20076;-68
2023/03/17 12:28:47;;;;;;;5.60;2.90;;;18.00;49.30;;;;;;5030989;28;20078;-67
2023/03/17 12:32:02;;;;;;;8.05;2.70;;;17.90;49.60;;;;;;5031394;28;20543;-67
2023/03/17 12:35:27;;;;;;;4.90;2.33;;;18.00;49.60;;;;;;5031156;28;20048;-67
2023/03/17 12:38:39;;;;;;;6.15;2.10;;;18.00;49.90;;;;;;5036678;28;20389;-67
2023/03/17 12:41:55;;;;;;;8.77;2.72;;;18.00;50.60;;;;;;5031061;28;20045;-68
2023/03/17 12:45:35;;;;;;;9.88;3.05;;;18.00;50.00;;;;;;5030921;28;20057;-68
2023/03/17 12:49:08;;;;;;;5.35;2.33;;;17.90;51.00;;;;;;5030930;28;20052;-67
2023/03/17 12:52:33;;;;;;;8.52;3.75;;;17.80;50.80;;;;;;5030983;28;20052;-67
2023/03/17 12:55:37;;;;;;;4.53;2.25;;;17.80;51.60;;;;;;5030697;28;20052;-67
2023/03/17 12:58:49;;;;;;;7.82;3.08;;;17.70;51.50;;;;;;5030609;28;20050;-67
2023/03/17 13:02:09;;;;;;;13.23;4.38;;;17.70;51.80;;;;;;5030881;28;20642;-67
2023/03/17 13:05:15;;;;;;;7.55;3.42;;;17.80;51.40;;;;;;5030931;28;20056;-67
2023/03/17 13:08:27;;;;;;;10.65;3.40;;;17.90;51.60;;;;;;5030322;28;20044;-67
2023/03/17 13:11:38;;;;;;;6.28;3.10;;;18.00;52.70;;;;;;5030949;28;20489;-67
2023/03/17 13:14:46;;;;;;;4.03;2.70;;;17.90;51.40;;;;;;5029368;28;20425;-68
2023/03/17 13:18:14;;;;;;;6.63;2.42;;;17.80;52.60;;;;;;5030672;28;20052;-68
2023/03/17 13:21:21;;;;;;;5.97;2.90;;;17.80;51.90;;;;;;5029219;28;20048;-68
2023/03/17 13:24:49;;;;;;;3.67;2.45;;;17.80;51.60;;;;;;5029630;28;20045;-68
2023/03/17 13:28:15;;;;;;;4.05;2.33;;;17.90;51.60;;;;;;5030310;28;20053;-68
2023/03/17 13:31:33;;;;;;;4.82;2.58;;;17.90;52.00;;;;;;5030936;28;20055;-68
2023/03/17 13:34:47;;;;;;;5.88;3.17;;;18.00;52.30;;;;;;5030455;28;20045;-68
2023/03/17 13:38:05;;;;;;;5.43;2.72;;;17.90;52.80;;;;;;5030244;28;20535;-68
2023/03/17 13:41:10;;;;;;;10.48;3.03;;;17.90;52.40;;;;;;5030479;28;20056;-68
2023/03/17 13:44:35;;;;;;;4.47;2.80;;;17.90;52.60;;;;;;5030299;28;20057;-68
2023/03/17 13:47:41;;;;;;;7.00;3.03;;;18.00;52.50;;;;;;5029365;28;20513;-68
2023/03/17 13:50:45;;;;;;;6.80;2.70;;;18.00;52.50;;;;;;5030380;28;20044;-68
2023/03/17 13:53:55;;;;;;;5.93;2.35;;;17.90;52.30;;;;;;5030352;28;20044;-68
2023/03/17 13:57:24;;;;;;;10.40;2.85;;;17.80;52.00;;;;;;5029317;28;20406;-68
2023/03/17 14:00:32;;;;;;;4.70;2.28;;;17.80;53.50;;;;;;5028900;28;20045;-67
2023/03/17 14:03:39;;;;;;;7.95;2.40;;;17.80;52.60;;;;;;5028876;28;20481;-68
2023/03/17 14:06:45;;;;;;;6.85;2.75;;;17.70;52.60;;;;;;5029734;28;20401;-68
2023/03/17 14:09:59;;;;;;;3.75;2.10;;;17.70;52.80;;;;;;5029883;28;20052;-68
2023/03/17 14:13:24;;;;;;;6.88;2.80;;;17.80;53.70;;;;;;5029914;28;20060;-68
2023/03/17 14:16:37;;;;;;;13.40;3.60;;;17.80;53.00;;;;;;5030087;28;20060;-68
2023/03/17 14:19:59;;;;;;;4.07;2.10;;;17.80;52.90;;;;;;5033789;28;20044;-68
2023/03/17 14:23:03;;;;;;;4.57;1.58;;;17.80;54.10;;;;;;5033653;28;20052;-68
2023/03/17 14:26:10;;;;;;;12.77;2.45;;;17.80;55.20;;;;;;5033265;28;20116;-68
2023/03/17 14:29:18;;;;;;;16.73;4.35;;;17.90;58.80;;;;;;5033580;28;20053;-68
2023/03/17 14:32:23;;;;;;;7.55;2.90;;;17.80;61.90;;;;;;5033665;28;20052;-68
2023/03/17 14:35:41;;;;;;;6.15;2.92;;;17.80;61.70;;;;;;5033365;28;20623;-68
2023/03/17 14:38:55;;;;;;;15.93;2.50;;;17.80;63.10;;;;;;5033182;28;20400;-68
2023/03/17 14:42:04;;;;;;;8.07;2.97;;;17.70;64.30;;;;;;5033360;28;20049;-68
2023/03/17 14:45:18;;;;;;;27.45;3.42;;;17.60;64.60;;;;;;5033141;28;20520;-68
2023/03/17 14:48:26;;;;;;;11.02;2.45;;;17.60;64.20;;;;;;5033025;28;20441;-68
2023/03/17 14:51:37;;;;;;;9.07;2.22;;;17.50;65.50;;;;;;5032800;28;20052;-68
2023/03/17 14:54:42;;;;;;;16.50;3.38;;;17.40;65.80;;;;;;5032782;28;20049;-68
2023/03/17 14:57:52;;;;;;;10.25;2.50;;;17.40;65.70;;;;;;5032571;28;20044;-68
2023/03/17 15:01:02;;;;;;;5.70;2.65;;;17.30;66.70;;;;;;5032952;28;20044;-68
2023/03/17 15:04:11;;;;;;;3.80;1.85;;;17.20;67.10;;;;;;5032587;28;20045;-68
2023/03/17 15:07:29;;;;;;;11.75;2.88;;;17.10;67.40;;;;;;5032706;28;20445;-68
2023/03/17 15:10:41;;;;;;;10.48;2.85;;;17.10;67.70;;;;;;5032513;28;20044;-67
2023/03/17 15:13:47;;;;;;;7.35;2.30;;;17.00;66.80;;;;;;5032648;28;20049;-68
2023/03/17 15:16:53;;;;;;;9.05;3.00;;;17.00;67.60;;;;;;5032462;28;20052;-68
2023/03/17 15:20:03;;;;;;;8.63;2.95;;;17.00;66.80;;;;;;5031736;28;20049;-69
2023/03/17 15:23:17;;;;;;;6.57;2.38;;;17.00;67.10;;;;;;5032813;28;20056;-67
2023/03/17 15:26:30;;;;;;;11.95;2.65;;;16.90;67.20;;;;;;5032142;28;20045;-67
2023/03/17 15:29:34;;;;;;;7.03;2.65;;;16.90;68.00;;;;;;5030747;28;20060;-68
2023/03/17 15:32:39;;;;;;;6.72;2.00;;;16.90;68.00;;;;;;5032754;28;20617;-66
2023/03/17 15:35:43;;;;;;;19.58;3.22;;;16.90;67.50;;;;;;5032290;28;20061;-65
2023/03/17 15:38:47;;;;;;;4.55;2.25;;;16.90;67.10;;;;;;5032297;28;20524;-67
2023/03/17 15:41:51;;;;;;;7.53;2.53;;;16.80;68.00;;;;;;5032116;28;20037;-67
2023/03/17 15:44:55;;;;;;;9.35;2.97;;;16.80;68.60;;;;;;5032064;28;20049;-65
2023/03/17 15:48:00;;;;;;;16.35;5.60;;;16.70;68.20;;;;;;5031793;28;20057;-67
2023/03/17 15:51:04;;;;;;;19.92;4.45;;;16.70;68.50;;;;;;5031915;28;20044;-66
2023/03/17 15:54:13;;;;;;;16.52;2.95;;;16.70;68.70;;;;;;5031992;28;20049;-66
2023/03/17 15:57:17;;;;;;;24.58;4.55;;;16.60;68.40;;;;;;5031603;28;20049;-66
2023/03/17 16:00:23;;;;;;;6.63;2.42;;;16.60;69.00;;;;;;5031563;28;20044;-66
2023/03/17 16:03:29;;;;;;;9.27;2.17;;;16.50;68.50;;;;;;5032131;28;20048;-67
2023/03/17 16:06:34;;;;;;;9.77;4.65;;;16.40;68.70;;;;;;5031501;28;20056;-68
2023/03/17 16:09:38;;;;;;;12.68;2.70;;;16.40;68.70;;;;;;5030623;28;20040;-68
2023/03/17 16:12:43;;;;;;;16.27;2.88;;;16.30;67.50;;;;;;5030447;28;20036;-68
2023/03/17 16:15:56;;;;;;;10.20;3.15;;;16.20;68.30;;;;;;5031508;28;20060;-68
2023/03/17 16:19:00;;;;;;;16.55;3.55;;;16.20;69.20;;;;;;5030395;28;20057;-68
2023/03/17 16:22:09;;;;;;;7.13;2.78;;;16.10;68.10;;;;;;5031142;28;20216;-68
2023/03/17 16:25:20;;;;;;;13.65;3.35;;;16.10;68.80;;;;;;5031043;28;20484;-68
2023/03/17 16:28:30;;;;;;;19.85;3.30;;;16.00;69.00;;;;;;5030773;28;20052;-68